Bay Area Logo

Salinas, CA Condo Real Estate Listings

32 Total Real Estate Listings * Click on table heading to sort
Date Posted Property Type Style Address Price Living Area Lot Size Price/Sq Ft.
2018-01-21 Condo 1787 Cherokee Drive Salinas, CA 93906 $268,500 1,155 sq. ft. 436 sq. ft. $232
2018-01-19 Condo 2438 Main Street Salinas, CA 93906 $215,000 932 sq. ft. 871 sq. ft. $231
2018-01-13 Condo 1861 Cherokee Drive Salinas, CA 93906 $210,000 771 sq. ft. 436 sq. ft. $272
2018-01-05 Condo 1310 Primavera Street Salinas, CA 93901 $410,000 1,536 sq. ft. 1,742 sq. ft. $267
2018-01-03 Condo 104 Rossi Street Salinas, CA 93901 $212,000 639 sq. ft. 436 sq. ft. $332
2017-12-22 Condo 1795 Cherokee Drive Salinas, CA 93906 $258,900 1,083 sq. ft. 436 sq. ft. $239
2017-12-06 Condo 104 Rossi Street Salinas, CA 93901 $189,975 805 sq. ft. 436 sq. ft. $236
2017-11-21 Condo 1067 Padre Drive Salinas, CA 93901 $389,000 1,130 sq. ft. 54,014 sq. ft. $344
2017-11-17 Condo 158 Kern Street Salinas, CA 93905 $212,000 946 sq. ft. 871 sq. ft. $224
2017-11-14 Condo 136 Nissen Road Salinas, CA 93901 $439,000 1,385 sq. ft. 2,178 sq. ft. $317
2017-11-08 Condo Mediterranean 709 Garner Avenue Salinas, CA 93905 $229,000 864 sq. ft. 871 sq. ft. $265
2017-11-08 Condo 345 Coleridge Drive Salinas, CA 93901 $410,500 1,536 sq. ft. 1,742 sq. ft. $267
2017-10-30 Condo 417 Tyler Place Salinas, CA 93906 $263,000 932 sq. ft. 871 sq. ft. $282
2017-10-27 Condo 1783 Cherokee Drive Salinas, CA 93906 $214,999 924 sq. ft. 3,049 sq. ft. $233
2017-10-22 Condo 158 Madeira Avenue Salinas, CA 93905 $215,000 960 sq. ft. 871 sq. ft. $224
2017-10-16 Condo 505 West Street Salinas, CA 93901 $435,000 1,475 sq. ft. 30,056 sq. ft. $295
2017-10-06 Condo Traditional 23799 Monterey Salinas Highway Salinas, CA 93908 $585,000 1,482 sq. ft. 2,614 sq. ft. $395
2017-08-28 Condo 415 Tyler Place Salinas, CA 93906 $263,000 932 sq. ft. 871 sq. ft. $282
2017-08-07 Condo 166 Kern Street Salinas, CA 93905 $260,000 1,073 sq. ft. $242
2017-07-25 Condo Contemporary 174 Kern Street Salinas, CA 93905 $219,999 1,073 sq. ft. 871 sq. ft. $205
2017-06-21 Condo 409 Tyler Pl O Salinas, CA 93906 $229,000 884 sq. ft. 767 sq. ft. $259
2017-06-21 Condo 405 Tyler Pl F Salinas, CA 93906 $249,900 932 sq. ft. 976 sq. ft. $268
2017-06-07 Condo 23799 Monterey Salinas Hwy 9 Salinas, CA 93908 $645,000 1,403 sq. ft. 2,335 sq. ft. $460
2017-06-07 Condo 919 Acosta Plz 32 Salinas, CA 93905 $190,000 1,034 sq. ft. 862 sq. ft. $184
2017-06-06 Condo 144 Nissen Rd 4 Salinas, CA 93901 $490,000 1,341 sq. ft. 2,940 sq. ft. $365
2017-06-03 Condo 19219 Creekside Ln Salinas, CA 93908 $530,000 1,510 sq. ft. 1,786 sq. ft. $351
2017-05-08 Condo 1021 Polk St 19 Salinas, CA 93906 $365,000 1,359 sq. ft. 1,437 sq. ft. $269
2017-04-27 Condo 1253 Nogal Dr 17d Salinas, CA 93905 $314,900 1,513 sq. ft. 1,176 sq. ft. $208
2017-03-24 Condo 1295 Nogal Dr B Salinas, CA 93905 $308,000 1,513 sq. ft. 1,133 sq. ft. $204
2017-03-15 Condo Traditional 1310 Primavera St 110 Salinas, CA 93901 $397,000 1,580 sq. ft. 1,568 sq. ft. $251
2017-03-07 Condo Contemporary 1811 Cherokee Dr 1 Salinas, CA 93906 $208,000 924 sq. ft. 828 sq. ft. $225
2016-05-05 Condo Traditional 916 Acosta Plz 20 Salinas, CA 93905 $190,000 1,034 sq. ft. 784 sq. ft. $184